createdAt,value
2022-09-23T00:01:59.954Z,81.21
2022-09-23T00:05:05.761Z,81.15
2022-09-23T00:08:13.181Z,81.18
2022-09-23T00:11:21.105Z,81.22
2022-09-23T00:14:26.526Z,81.08
2022-09-23T00:17:33.887Z,81.05
2022-09-23T00:20:40.451Z,81.06
2022-09-23T00:23:46.313Z,81.17
2022-09-23T00:26:51.846Z,81.20
2022-09-23T00:29:57.247Z,81.37
2022-09-23T00:33:02.616Z,81.35
2022-09-23T00:36:11.311Z,81.33
2022-09-23T00:39:17.005Z,81.27
2022-09-23T00:42:24.576Z,81.31
2022-09-23T00:45:30.967Z,81.28
2022-09-23T00:48:38.646Z,81.46
2022-09-23T00:51:51.738Z,81.38
2022-09-23T00:55:00.269Z,81.48
2022-09-23T00:58:11.196Z,81.53
2022-09-23T01:01:17.159Z,81.42
2022-09-23T01:04:24.707Z,81.56
2022-09-23T01:07:30.945Z,81.61
2022-09-23T01:10:38.220Z,81.52
2022-09-23T01:13:53.469Z,81.64
2022-09-23T01:17:05.621Z,81.64
2022-09-23T01:20:41.977Z,81.62
2022-09-23T01:24:21.038Z,81.42
2022-09-23T01:27:51.648Z,81.59
2022-09-23T01:31:05.114Z,81.60
2022-09-23T01:34:16.675Z,81.67
2022-09-23T01:37:31.133Z,81.66
2022-09-23T01:40:46.831Z,81.70
2022-09-23T01:44:01.991Z,81.69
2022-09-23T01:47:15.798Z,81.72
2022-09-23T01:50:42.534Z,81.57
2022-09-23T01:53:52.782Z,81.54
2022-09-23T01:57:05.355Z,81.65
2022-09-23T02:00:15.839Z,81.73
2022-09-23T02:03:27.025Z,81.69
2022-09-23T02:06:37.381Z,81.65
2022-09-23T02:09:48.409Z,81.90
2022-09-23T02:12:59.709Z,81.80
2022-09-23T02:16:13.439Z,81.87
2022-09-23T02:19:27.299Z,81.97
2022-09-23T02:22:40.949Z,81.78
2022-09-23T02:25:56.352Z,81.82
2022-09-23T02:29:10.821Z,81.88
2022-09-23T02:32:22.886Z,81.89
2022-09-23T02:35:35.594Z,82.01
2022-09-23T02:38:46.029Z,81.88
2022-09-23T02:42:00.919Z,82.00
2022-09-23T02:45:07.669Z,82.10
2022-09-23T02:48:19.807Z,82.12
2022-09-23T02:51:26.641Z,82.09
2022-09-23T02:54:33.628Z,82.25
2022-09-23T02:57:39.715Z,82.10
2022-09-23T03:01:02.065Z,82.22
2022-09-23T03:04:17.622Z,82.14
2022-09-23T03:07:33.318Z,82.22
2022-09-23T03:10:47.985Z,82.23
2022-09-23T03:14:17.686Z,82.29
2022-09-23T03:17:31.416Z,82.08
2022-09-23T03:20:42.797Z,82.29
2022-09-23T03:23:50.835Z,82.25
2022-09-23T03:27:00.336Z,82.33
2022-09-23T03:30:09.375Z,82.21
2022-09-23T03:33:18.234Z,82.32
2022-09-23T03:36:47.525Z,82.38
2022-09-23T03:39:57.401Z,82.28
2022-09-23T03:43:05.316Z,82.42
2022-09-23T03:46:12.152Z,82.40
2022-09-23T03:49:20.381Z,82.40
2022-09-23T03:52:27.874Z,82.43
2022-09-23T03:55:34.956Z,82.40
2022-09-23T03:58:40.916Z,82.38
2022-09-23T04:01:47.106Z,82.27
2022-09-23T04:04:51.626Z,82.26
2022-09-23T04:07:57.911Z,82.58
2022-09-23T04:11:02.593Z,82.56
2022-09-23T04:14:10.615Z,82.63
2022-09-23T04:17:16.842Z,82.69
2022-09-23T04:20:21.175Z,82.56
2022-09-23T04:23:27.321Z,82.58
2022-09-23T04:26:34.492Z,82.62
2022-09-23T04:29:40.414Z,82.51
2022-09-23T04:32:46.294Z,82.47
2022-09-23T04:35:56.562Z,82.44
2022-09-23T04:39:02.904Z,82.64
2022-09-23T04:42:09.168Z,82.63
2022-09-23T04:45:13.594Z,82.57
2022-09-23T04:48:19.478Z,82.50
2022-09-23T04:51:27.399Z,82.54
2022-09-23T04:54:33.479Z,82.78
2022-09-23T04:57:39.374Z,82.72
2022-09-23T05:00:45.344Z,82.76
2022-09-23T05:03:52.055Z,82.75
2022-09-23T05:07:02.843Z,82.88
2022-09-23T05:10:11.076Z,82.79
2022-09-23T05:13:16.983Z,83.04
2022-09-23T05:16:24.053Z,83.04
2022-09-23T05:19:30.002Z,83.06
2022-09-23T05:22:36.354Z,83.14
2022-09-23T05:25:42.778Z,83.20
2022-09-23T05:28:48.982Z,83.28
2022-09-23T05:31:53.320Z,83.09
2022-09-23T05:34:59.272Z,83.35
2022-09-23T05:38:05.187Z,83.13
2022-09-23T05:41:12.895Z,83.43
2022-09-23T05:44:18.814Z,83.38
2022-09-23T05:47:24.731Z,83.48
2022-09-23T05:50:30.624Z,83.47
2022-09-23T05:53:36.588Z,83.58
2022-09-23T05:56:42.618Z,83.68
2022-09-23T05:59:48.707Z,83.67
2022-09-23T06:02:54.694Z,83.59
2022-09-23T06:06:00.612Z,83.44
2022-09-23T06:09:08.296Z,83.63
2022-09-23T06:12:14.395Z,83.70
2022-09-23T06:15:20.712Z,83.96
2022-09-23T06:18:26.636Z,84.00
2022-09-23T06:21:32.623Z,83.99
2022-09-23T06:24:38.546Z,84.17
2022-09-23T06:27:44.696Z,84.16
2022-09-23T06:30:51.158Z,84.00
2022-09-23T06:34:07.633Z,84.05
2022-09-23T06:37:20.239Z,83.83
2022-09-23T06:40:26.867Z,84.04
2022-09-23T06:43:31.921Z,83.86
2022-09-23T06:46:38.232Z,83.84
2022-09-23T06:49:44.271Z,83.84
2022-09-23T06:52:56.443Z,83.95
2022-09-23T06:56:04.287Z,84.05
2022-09-23T06:59:13.286Z,84.03
2022-09-23T07:02:19.331Z,84.02
2022-09-23T07:05:23.786Z,83.91
2022-09-23T07:08:31.215Z,83.73
2022-09-23T07:11:37.856Z,83.93
2022-09-23T07:14:43.780Z,83.90
2022-09-23T07:17:49.686Z,83.80
2022-09-23T07:20:58.252Z,83.78
2022-09-23T07:24:05.165Z,83.91
2022-09-23T07:27:11.111Z,83.85
2022-09-23T07:30:24.638Z,83.64
2022-09-23T07:33:33.117Z,83.56
2022-09-23T07:36:41.153Z,83.59
2022-09-23T07:39:47.623Z,83.65
2022-09-23T07:42:53.558Z,83.54
2022-09-23T07:45:59.821Z,83.28
2022-09-23T07:49:06.823Z,83.09
2022-09-23T07:52:12.990Z,83.08
2022-09-23T07:55:21.071Z,83.00
2022-09-23T07:58:27.612Z,83.02
2022-09-23T08:01:35.960Z,82.87
2022-09-23T08:04:42.013Z,82.88
2022-09-23T08:07:49.693Z,83.03
2022-09-23T08:11:03.804Z,83.12
2022-09-23T08:14:09.711Z,82.74
2022-09-23T08:17:16.170Z,82.70
2022-09-23T08:20:35.942Z,82.40
2022-09-23T08:23:41.866Z,82.60
2022-09-23T08:26:49.206Z,82.63
2022-09-23T08:29:55.092Z,82.46
2022-09-23T08:33:01.030Z,82.07
2022-09-23T08:36:08.189Z,82.02
2022-09-23T08:39:17.293Z,81.71
2022-09-23T08:42:29.639Z,81.69
2022-09-23T08:45:37.933Z,81.69
2022-09-23T08:48:48.318Z,81.62
2022-09-23T08:51:56.343Z,81.68
2022-09-23T08:55:02.524Z,81.49
2022-09-23T08:58:25.608Z,81.38
2022-09-23T09:01:39.609Z,81.28
2022-09-23T09:04:49.233Z,81.32
2022-09-23T09:07:58.806Z,81.47
2022-09-23T09:11:06.802Z,81.44
2022-09-23T09:14:23.885Z,81.16
2022-09-23T09:17:36.646Z,80.60
2022-09-23T09:20:50.438Z,80.26
2022-09-23T09:23:58.463Z,80.02
2022-09-23T09:27:13.975Z,79.90
2022-09-23T09:30:20.967Z,79.85
2022-09-23T09:33:33.330Z,79.50
2022-09-23T09:36:46.340Z,79.30
2022-09-23T09:39:52.328Z,79.49
2022-09-23T09:42:58.267Z,79.25
2022-09-23T09:46:17.417Z,79.22
2022-09-23T09:49:31.083Z,78.94
2022-09-23T09:52:43.565Z,78.79
2022-09-23T09:56:03.735Z,78.55
2022-09-23T09:59:12.992Z,78.40
2022-09-23T10:02:30.863Z,77.88
2022-09-23T10:05:49.052Z,77.76
2022-09-23T10:09:13.840Z,77.35
2022-09-23T10:12:22.199Z,77.21
2022-09-23T10:15:34.795Z,77.01
2022-09-23T10:18:51.300Z,77.09
2022-09-23T10:22:00.437Z,77.10
2022-09-23T10:25:17.037Z,77.14
2022-09-23T10:28:45.581Z,77.13
2022-09-23T10:31:54.173Z,77.03
2022-09-23T10:35:03.718Z,76.92
2022-09-23T10:38:11.854Z,76.90
2022-09-23T10:41:46.383Z,76.51
2022-09-23T10:45:21.752Z,76.04
2022-09-23T10:48:40.907Z,75.73
2022-09-23T10:51:56.688Z,75.46
2022-09-23T10:55:16.661Z,75.09
2022-09-23T10:58:56.059Z,75.20
2022-09-23T11:02:17.029Z,75.09
2022-09-23T11:05:35.272Z,75.23
2022-09-23T11:08:56.391Z,75.16
2022-09-23T11:12:16.499Z,74.73
2022-09-23T11:15:37.851Z,74.05
2022-09-23T11:19:05.500Z,73.99
2022-09-23T11:22:36.324Z,73.72
2022-09-23T11:25:53.833Z,73.97
2022-09-23T11:29:35.629Z,74.29
2022-09-23T11:33:14.354Z,74.36
2022-09-23T11:36:28.071Z,73.78
2022-09-23T11:39:38.735Z,73.79
2022-09-23T11:42:52.642Z,73.68
2022-09-23T11:46:03.957Z,73.46
2022-09-23T11:49:16.385Z,73.48
2022-09-23T11:52:27.811Z,73.10
2022-09-23T11:55:52.699Z,72.96
2022-09-23T11:59:08.629Z,72.09
2022-09-23T12:02:25.717Z,71.72
2022-09-23T12:05:39.586Z,71.56
2022-09-23T12:08:45.753Z,71.94
2022-09-23T12:11:54.723Z,72.04
2022-09-23T12:15:08.017Z,71.70
2022-09-23T12:18:29.075Z,71.44
2022-09-23T12:21:51.637Z,71.52
2022-09-23T12:25:11.179Z,70.91
2022-09-23T12:28:23.204Z,70.96
2022-09-23T12:31:33.096Z,70.60
2022-09-23T12:34:49.176Z,70.17
2022-09-23T12:37:55.839Z,69.69
2022-09-23T12:41:08.531Z,69.75
2022-09-23T12:44:30.503Z,69.60
2022-09-23T12:47:42.764Z,69.26
2022-09-23T12:51:17.162Z,68.94
2022-09-23T12:54:26.991Z,69.12
2022-09-23T12:57:45.473Z,68.99
2022-09-23T13:01:10.143Z,69.01
2022-09-23T13:04:48.452Z,68.39
2022-09-23T13:07:59.428Z,68.14
2022-09-23T13:11:08.664Z,67.66
2022-09-23T13:14:27.255Z,67.28
2022-09-23T13:17:37.662Z,67.35
2022-09-23T13:20:43.625Z,66.65
2022-09-23T13:24:17.674Z,66.72
2022-09-23T13:27:28.752Z,66.56
2022-09-23T13:30:34.734Z,66.52
2022-09-23T13:33:47.893Z,66.58
2022-09-23T13:36:53.798Z,66.43
2022-09-23T13:40:20.435Z,66.36
2022-09-23T13:43:34.703Z,66.19
2022-09-23T13:46:46.791Z,66.19
2022-09-23T13:49:52.744Z,66.18
2022-09-23T13:53:02.178Z,66.08
2022-09-23T13:56:14.004Z,65.94
2022-09-23T13:59:28.388Z,65.78
2022-09-23T14:02:34.347Z,65.64
2022-09-23T14:05:39.767Z,65.52
2022-09-23T14:08:49.968Z,65.50
2022-09-23T14:11:57.853Z,65.17
2022-09-23T14:15:03.785Z,64.90
2022-09-23T14:18:11.183Z,65.31
2022-09-23T14:21:40.769Z,65.12
2022-09-23T14:24:47.623Z,65.03
2022-09-23T14:27:59.778Z,64.77
2022-09-23T14:31:06.656Z,64.93
2022-09-23T14:34:46.128Z,64.90
2022-09-23T14:38:12.497Z,64.56
2022-09-23T14:41:24.081Z,64.44
2022-09-23T14:44:33.433Z,64.36
2022-09-23T14:47:40.031Z,64.59
2022-09-23T14:50:52.418Z,64.25
2022-09-23T14:54:18.280Z,63.89
2022-09-23T14:57:30.656Z,63.92
2022-09-23T15:00:37.034Z,64.03
2022-09-23T15:03:49.125Z,63.94
2022-09-23T15:06:58.096Z,63.83
2022-09-23T15:10:05.288Z,63.84
2022-09-23T15:13:17.051Z,63.70
2022-09-23T15:16:29.380Z,63.50
2022-09-23T15:19:38.900Z,63.63
2022-09-23T15:22:49.902Z,63.57
2022-09-23T15:25:56.097Z,63.59
2022-09-23T15:29:02.252Z,63.45
2022-09-23T15:32:08.720Z,63.60
2022-09-23T15:35:18.986Z,63.50
2022-09-23T15:38:27.082Z,63.58
2022-09-23T15:41:34.153Z,63.33
2022-09-23T15:44:40.250Z,63.43
2022-09-23T15:47:45.451Z,63.61
2022-09-23T15:50:51.975Z,63.44
2022-09-23T15:53:58.913Z,63.54
2022-09-23T15:57:05.097Z,63.62
2022-09-23T16:00:14.929Z,63.90
2022-09-23T16:03:23.307Z,63.97
2022-09-23T16:06:29.532Z,63.90
2022-09-23T16:09:35.407Z,64.05
2022-09-23T16:12:41.413Z,64.09
2022-09-23T16:15:47.331Z,64.19
2022-09-23T16:18:53.504Z,64.40
2022-09-23T16:21:57.760Z,64.58
2022-09-23T16:25:04.883Z,64.59
2022-09-23T16:28:10.942Z,64.88
2022-09-23T16:31:16.417Z,64.98
2022-09-23T16:34:22.521Z,65.17
2022-09-23T16:37:28.448Z,65.06
2022-09-23T16:40:34.444Z,65.19
2022-09-23T16:43:41.090Z,65.38
2022-09-23T16:46:47.033Z,65.68
2022-09-23T16:49:52.954Z,65.63
2022-09-23T16:52:59.166Z,65.73
2022-09-23T16:56:09.575Z,65.84
2022-09-23T16:59:16.770Z,65.87
2022-09-23T17:02:40.268Z,66.20
2022-09-23T17:05:47.092Z,66.15
2022-09-23T17:08:53.151Z,66.32
2022-09-23T17:12:07.927Z,66.30
2022-09-23T17:15:15.015Z,66.42
2022-09-23T17:18:21.060Z,66.45
2022-09-23T17:21:28.499Z,66.65
2022-09-23T17:24:34.403Z,66.76
2022-09-23T17:27:40.451Z,66.96
2022-09-23T17:30:46.375Z,66.90
2022-09-23T17:33:52.848Z,67.11
2022-09-23T17:36:58.811Z,67.21
2022-09-23T17:40:05.367Z,67.19
2022-09-23T17:43:11.425Z,67.40
2022-09-23T17:46:19.399Z,67.48
2022-09-23T17:49:25.339Z,67.75
2022-09-23T17:52:31.240Z,67.86
2022-09-23T17:55:37.202Z,67.92
2022-09-23T17:58:43.966Z,67.90
2022-09-23T18:01:49.990Z,68.04
2022-09-23T18:04:55.953Z,68.07
2022-09-23T18:08:05.891Z,68.26
2022-09-23T18:11:20.124Z,68.24
2022-09-23T18:14:26.519Z,68.19
2022-09-23T18:17:32.424Z,68.45
2022-09-23T18:20:38.444Z,68.66
2022-09-23T18:23:44.394Z,68.49
2022-09-23T18:26:51.013Z,68.52
2022-09-23T18:29:56.903Z,68.79
2022-09-23T18:33:03.778Z,68.82
2022-09-23T18:36:10.849Z,68.86
2022-09-23T18:39:16.905Z,69.06
2022-09-23T18:42:23.846Z,69.08
2022-09-23T18:45:29.957Z,69.03
2022-09-23T18:48:54.859Z,69.03
2022-09-23T18:52:00.982Z,69.07
2022-09-23T18:55:08.313Z,69.19
2022-09-23T18:58:14.189Z,69.19
2022-09-23T19:01:21.195Z,69.39
2022-09-23T19:04:28.108Z,69.48
2022-09-23T19:07:34.014Z,69.36
2022-09-23T19:10:39.903Z,69.54
2022-09-23T19:13:46.411Z,69.49
2022-09-23T19:16:52.283Z,69.54
2022-09-23T19:19:58.720Z,69.56
2022-09-23T19:23:04.637Z,69.59
2022-09-23T19:26:13.175Z,69.57
2022-09-23T19:29:22.090Z,69.69
2022-09-23T19:32:28.113Z,69.85
2022-09-23T19:35:34.588Z,69.89
2022-09-23T19:38:40.762Z,69.84
2022-09-23T19:41:45.078Z,69.96
2022-09-23T19:44:50.991Z,70.11
2022-09-23T19:48:02.508Z,70.14
2022-09-23T19:51:08.711Z,70.24
2022-09-23T19:54:21.055Z,70.36
2022-09-23T19:57:29.806Z,70.37
2022-09-23T20:00:36.537Z,70.31
2022-09-23T20:03:42.475Z,70.40
2022-09-23T20:06:49.914Z,70.44
2022-09-23T20:09:56.647Z,70.57
2022-09-23T20:13:03.267Z,70.48
2022-09-23T20:16:12.295Z,70.47
2022-09-23T20:19:18.273Z,70.34
2022-09-23T20:22:32.897Z,70.31
2022-09-23T20:25:57.090Z,70.49
2022-09-23T20:29:03.996Z,70.52
2022-09-23T20:32:11.594Z,70.57
2022-09-23T20:35:17.720Z,70.66
2022-09-23T20:38:25.130Z,70.63
2022-09-23T20:41:34.916Z,70.73
2022-09-23T20:44:41.270Z,70.85
2022-09-23T20:47:47.171Z,70.77
2022-09-23T20:50:54.195Z,70.94
2022-09-23T20:54:00.126Z,70.82
2022-09-23T20:57:06.459Z,70.89
2022-09-23T21:00:11.722Z,71.15
2022-09-23T21:03:17.672Z,71.45
2022-09-23T21:06:26.325Z,71.25
2022-09-23T21:09:32.372Z,71.33
2022-09-23T21:12:38.318Z,71.50
2022-09-23T21:15:44.365Z,71.56
2022-09-23T21:18:51.571Z,71.62
2022-09-23T21:21:57.506Z,71.60
2022-09-23T21:25:26.966Z,71.76
2022-09-23T21:28:33.290Z,71.80
2022-09-23T21:31:40.397Z,71.76
2022-09-23T21:34:46.452Z,71.83
2022-09-23T21:37:52.365Z,71.89
2022-09-23T21:41:02.767Z,71.96
2022-09-23T21:44:09.408Z,71.93
2022-09-23T21:47:15.469Z,71.85
2022-09-23T21:50:21.787Z,72.04
2022-09-23T21:53:26.550Z,72.06
2022-09-23T21:56:36.571Z,72.28
2022-09-23T21:59:42.608Z,72.26
2022-09-23T22:02:48.516Z,72.20
2022-09-23T22:06:08.395Z,72.28
2022-09-23T22:09:17.278Z,72.43
2022-09-23T22:12:24.332Z,72.24
2022-09-23T22:15:35.776Z,72.36
2022-09-23T22:18:42.299Z,72.42
2022-09-23T22:21:50.818Z,72.32
2022-09-23T22:24:56.751Z,72.39
2022-09-23T22:28:20.527Z,72.53
2022-09-23T22:31:44.237Z,72.46
2022-09-23T22:34:52.063Z,72.60
2022-09-23T22:38:00.787Z,72.58
2022-09-23T22:41:07.030Z,72.70
2022-09-23T22:44:13.176Z,72.71
2022-09-23T22:47:19.718Z,72.63
2022-09-23T22:50:25.883Z,72.54
2022-09-23T22:53:32.407Z,72.50
2022-09-23T22:56:38.771Z,72.70
2022-09-23T22:59:48.197Z,72.50
2022-09-23T23:02:54.785Z,72.60
2022-09-23T23:06:02.610Z,72.73
2022-09-23T23:09:11.265Z,72.69
2022-09-23T23:12:19.163Z,72.73
2022-09-23T23:15:25.051Z,72.66
2022-09-23T23:18:36.147Z,72.86
2022-09-23T23:21:43.784Z,72.82
2022-09-23T23:24:49.700Z,72.64
2022-09-23T23:27:55.833Z,72.83
2022-09-23T23:31:06.884Z,72.88
2022-09-23T23:34:16.879Z,72.82
2022-09-23T23:37:23.012Z,72.90
2022-09-23T23:40:28.985Z,72.89
2022-09-23T23:43:35.131Z,72.85
2022-09-23T23:46:41.288Z,72.73
2022-09-23T23:49:47.297Z,72.71
2022-09-23T23:52:53.231Z,72.88
2022-09-23T23:56:02.180Z,72.98
2022-09-23T23:59:08.116Z,73.11
